sensor_id;sensor_type;location;lat;lon;timestamp;P1;durP1;ratioP1;P2;durP2;ratioP2
7573;SDS011;3828;48.922;9.116;2022-12-18T00:02:13;42.40;;;25.97;;
7573;SDS011;3828;48.922;9.116;2022-12-18T00:04:40;39.40;;;25.43;;
7573;SDS011;3828;48.922;9.116;2022-12-18T00:07:07;43.80;;;24.13;;
7573;SDS011;3828;48.922;9.116;2022-12-18T00:09:34;35.03;;;23.50;;
7573;SDS011;3828;48.922;9.116;2022-12-18T00:12:01;38.93;;;25.10;;
7573;SDS011;3828;48.922;9.116;2022-12-18T00:14:29;39.13;;;24.30;;
7573;SDS011;3828;48.922;9.116;2022-12-18T00:16:56;38.17;;;24.93;;
7573;SDS011;3828;48.922;9.116;2022-12-18T00:19:25;42.40;;;28.63;;
7573;SDS011;3828;48.922;9.116;2022-12-18T00:21:53;37.77;;;28.40;;
7573;SDS011;3828;48.922;9.116;2022-12-18T00:24:20;44.93;;;29.43;;
7573;SDS011;3828;48.922;9.116;2022-12-18T00:26:47;41.77;;;27.33;;
7573;SDS011;3828;48.922;9.116;2022-12-18T00:29:13;51.33;;;29.27;;
7573;SDS011;3828;48.922;9.116;2022-12-18T00:31:42;44.57;;;27.47;;
7573;SDS011;3828;48.922;9.116;2022-12-18T00:34:09;43.77;;;27.33;;
7573;SDS011;3828;48.922;9.116;2022-12-18T00:36:37;40.03;;;25.83;;
7573;SDS011;3828;48.922;9.116;2022-12-18T00:39:07;41.50;;;27.97;;
7573;SDS011;3828;48.922;9.116;2022-12-18T00:41:35;42.10;;;29.10;;
7573;SDS011;3828;48.922;9.116;2022-12-18T00:44:21;42.83;;;29.43;;
7573;SDS011;3828;48.922;9.116;2022-12-18T00:46:50;43.70;;;28.73;;
7573;SDS011;3828;48.922;9.116;2022-12-18T00:49:17;49.93;;;30.67;;
7573;SDS011;3828;48.922;9.116;2022-12-18T00:51:45;40.00;;;28.67;;
7573;SDS011;3828;48.922;9.116;2022-12-18T00:54:12;47.40;;;29.40;;
7573;SDS011;3828;48.922;9.116;2022-12-18T00:56:39;39.50;;;24.73;;
7573;SDS011;3828;48.922;9.116;2022-12-18T00:59:06;47.73;;;28.13;;
7573;SDS011;3828;48.922;9.116;2022-12-18T01:01:33;39.10;;;27.27;;
7573;SDS011;3828;48.922;9.116;2022-12-18T01:04:02;42.83;;;29.40;;
7573;SDS011;3828;48.922;9.116;2022-12-18T01:06:31;42.83;;;26.57;;
7573;SDS011;3828;48.922;9.116;2022-12-18T01:08:58;36.60;;;26.73;;
7573;SDS011;3828;48.922;9.116;2022-12-18T01:11:25;35.53;;;26.17;;
7573;SDS011;3828;48.922;9.116;2022-12-18T01:13:53;44.67;;;26.77;;
7573;SDS011;3828;48.922;9.116;2022-12-18T01:16:20;35.60;;;23.83;;
7573;SDS011;3828;48.922;9.116;2022-12-18T01:18:49;30.33;;;23.43;;
7573;SDS011;3828;48.922;9.116;2022-12-18T01:21:19;37.33;;;25.50;;
7573;SDS011;3828;48.922;9.116;2022-12-18T01:23:47;36.80;;;26.03;;
7573;SDS011;3828;48.922;9.116;2022-12-18T01:26:18;34.90;;;24.13;;
7573;SDS011;3828;48.922;9.116;2022-12-18T01:28:44;38.83;;;26.13;;
7573;SDS011;3828;48.922;9.116;2022-12-18T01:31:12;40.77;;;25.97;;
7573;SDS011;3828;48.922;9.116;2022-12-18T01:33:42;42.47;;;25.63;;
7573;SDS011;3828;48.922;9.116;2022-12-18T01:36:21;44.33;;;27.30;;
7573;SDS011;3828;48.922;9.116;2022-12-18T01:38:49;39.50;;;26.13;;
7573;SDS011;3828;48.922;9.116;2022-12-18T01:41:17;40.63;;;27.03;;
7573;SDS011;3828;48.922;9.116;2022-12-18T01:43:51;37.30;;;24.63;;
7573;SDS011;3828;48.922;9.116;2022-12-18T01:46:20;37.67;;;24.13;;
7573;SDS011;3828;48.922;9.116;2022-12-18T01:48:52;37.13;;;25.30;;
7573;SDS011;3828;48.922;9.116;2022-12-18T01:51:23;40.73;;;26.23;;
7573;SDS011;3828;48.922;9.116;2022-12-18T01:53:51;39.07;;;25.03;;
7573;SDS011;3828;48.922;9.116;2022-12-18T01:56:21;39.83;;;27.17;;
7573;SDS011;3828;48.922;9.116;2022-12-18T01:58:50;42.70;;;28.30;;
7573;SDS011;3828;48.922;9.116;2022-12-18T02:01:21;40.13;;;26.10;;
7573;SDS011;3828;48.922;9.116;2022-12-18T02:03:49;36.33;;;25.50;;
7573;SDS011;3828;48.922;9.116;2022-12-18T02:06:18;36.10;;;23.43;;
7573;SDS011;3828;48.922;9.116;2022-12-18T02:08:54;35.30;;;25.23;;
7573;SDS011;3828;48.922;9.116;2022-12-18T02:11:31;36.57;;;24.40;;
7573;SDS011;3828;48.922;9.116;2022-12-18T02:14:08;35.47;;;23.77;;
7573;SDS011;3828;48.922;9.116;2022-12-18T02:16:44;37.90;;;23.63;;
7573;SDS011;3828;48.922;9.116;2022-12-18T02:19:21;37.63;;;25.77;;
7573;SDS011;3828;48.922;9.116;2022-12-18T02:22:14;33.00;;;22.23;;
7573;SDS011;3828;48.922;9.116;2022-12-18T02:24:54;55.17;;;27.03;;
7573;SDS011;3828;48.922;9.116;2022-12-18T02:27:32;35.60;;;25.83;;
7573;SDS011;3828;48.922;9.116;2022-12-18T02:30:05;39.17;;;25.27;;
7573;SDS011;3828;48.922;9.116;2022-12-18T02:32:36;39.93;;;24.50;;
7573;SDS011;3828;48.922;9.116;2022-12-18T02:35:06;41.33;;;26.20;;
7573;SDS011;3828;48.922;9.116;2022-12-18T02:37:37;37.00;;;23.20;;
7573;SDS011;3828;48.922;9.116;2022-12-18T02:40:07;36.63;;;24.77;;
7573;SDS011;3828;48.922;9.116;2022-12-18T02:42:36;37.47;;;24.23;;
7573;SDS011;3828;48.922;9.116;2022-12-18T02:45:04;39.80;;;24.97;;
7573;SDS011;3828;48.922;9.116;2022-12-18T02:47:32;38.37;;;25.33;;
7573;SDS011;3828;48.922;9.116;2022-12-18T02:50:05;42.97;;;23.87;;
7573;SDS011;3828;48.922;9.116;2022-12-18T02:52:41;37.07;;;25.37;;
7573;SDS011;3828;48.922;9.116;2022-12-18T02:55:20;45.57;;;25.43;;
7573;SDS011;3828;48.922;9.116;2022-12-18T02:57:56;41.67;;;26.17;;
7573;SDS011;3828;48.922;9.116;2022-12-18T03:00:30;37.93;;;25.57;;
7573;SDS011;3828;48.922;9.116;2022-12-18T03:03:02;37.23;;;24.10;;
7573;SDS011;3828;48.922;9.116;2022-12-18T03:05:37;43.37;;;26.23;;
7573;SDS011;3828;48.922;9.116;2022-12-18T03:08:07;34.23;;;23.30;;
7573;SDS011;3828;48.922;9.116;2022-12-18T03:10:39;39.60;;;24.90;;
7573;SDS011;3828;48.922;9.116;2022-12-18T03:13:13;37.63;;;23.93;;
7573;SDS011;3828;48.922;9.116;2022-12-18T03:15:44;37.27;;;23.87;;
7573;SDS011;3828;48.922;9.116;2022-12-18T03:18:16;34.40;;;22.80;;
7573;SDS011;3828;48.922;9.116;2022-12-18T03:20:46;35.97;;;20.37;;
7573;SDS011;3828;48.922;9.116;2022-12-18T03:23:17;31.77;;;22.73;;
7573;SDS011;3828;48.922;9.116;2022-12-18T03:25:47;36.10;;;22.93;;
7573;SDS011;3828;48.922;9.116;2022-12-18T03:28:19;40.20;;;23.77;;
7573;SDS011;3828;48.922;9.116;2022-12-18T03:30:47;43.73;;;24.80;;
7573;SDS011;3828;48.922;9.116;2022-12-18T03:33:18;34.10;;;21.73;;
7573;SDS011;3828;48.922;9.116;2022-12-18T03:35:50;38.90;;;22.77;;
7573;SDS011;3828;48.922;9.116;2022-12-18T03:38:17;33.67;;;22.60;;
7573;SDS011;3828;48.922;9.116;2022-12-18T03:40:46;40.47;;;23.77;;
7573;SDS011;3828;48.922;9.116;2022-12-18T03:43:24;31.93;;;21.83;;
7573;SDS011;3828;48.922;9.116;2022-12-18T03:46:00;31.43;;;21.30;;
7573;SDS011;3828;48.922;9.116;2022-12-18T03:48:31;35.77;;;22.13;;
7573;SDS011;3828;48.922;9.116;2022-12-18T03:51:05;36.60;;;22.17;;
7573;SDS011;3828;48.922;9.116;2022-12-18T03:53:37;37.20;;;21.07;;
7573;SDS011;3828;48.922;9.116;2022-12-18T03:56:09;33.33;;;20.93;;
7573;SDS011;3828;48.922;9.116;2022-12-18T03:58:39;30.83;;;20.63;;
7573;SDS011;3828;48.922;9.116;2022-12-18T04:01:08;30.17;;;22.03;;
7573;SDS011;3828;48.922;9.116;2022-12-18T04:03:39;32.10;;;20.73;;
7573;SDS011;3828;48.922;9.116;2022-12-18T04:06:09;31.13;;;20.93;;
7573;SDS011;3828;48.922;9.116;2022-12-18T04:08:37;36.30;;;20.73;;
7573;SDS011;3828;48.922;9.116;2022-12-18T04:11:05;35.20;;;20.80;;
7573;SDS011;3828;48.922;9.116;2022-12-18T04:13:36;33.17;;;21.40;;
7573;SDS011;3828;48.922;9.116;2022-12-18T04:16:06;32.47;;;22.77;;
7573;SDS011;3828;48.922;9.116;2022-12-18T04:18:34;29.90;;;20.97;;
7573;SDS011;3828;48.922;9.116;2022-12-18T04:21:01;32.53;;;20.37;;
7573;SDS011;3828;48.922;9.116;2022-12-18T04:23:29;27.33;;;19.43;;
7573;SDS011;3828;48.922;9.116;2022-12-18T04:25:56;35.20;;;20.93;;
7573;SDS011;3828;48.922;9.116;2022-12-18T04:28:22;28.60;;;19.47;;
7573;SDS011;3828;48.922;9.116;2022-12-18T04:30:49;30.97;;;19.23;;
7573;SDS011;3828;48.922;9.116;2022-12-18T04:33:18;31.60;;;21.33;;
7573;SDS011;3828;48.922;9.116;2022-12-18T04:35:47;31.10;;;20.83;;
7573;SDS011;3828;48.922;9.116;2022-12-18T04:38:14;28.10;;;18.50;;
7573;SDS011;3828;48.922;9.116;2022-12-18T04:40:42;30.23;;;20.97;;
7573;SDS011;3828;48.922;9.116;2022-12-18T04:43:09;28.23;;;20.60;;
7573;SDS011;3828;48.922;9.116;2022-12-18T04:45:36;29.67;;;20.17;;
7573;SDS011;3828;48.922;9.116;2022-12-18T04:48:03;30.40;;;19.53;;
7573;SDS011;3828;48.922;9.116;2022-12-18T04:50:32;32.17;;;20.43;;
7573;SDS011;3828;48.922;9.116;2022-12-18T04:52:59;26.63;;;19.77;;
7573;SDS011;3828;48.922;9.116;2022-12-18T04:55:26;27.70;;;20.57;;
7573;SDS011;3828;48.922;9.116;2022-12-18T04:57:54;30.67;;;19.80;;
7573;SDS011;3828;48.922;9.116;2022-12-18T05:00:21;28.50;;;20.27;;
7573;SDS011;3828;48.922;9.116;2022-12-18T05:02:48;27.03;;;18.97;;
7573;SDS011;3828;48.922;9.116;2022-12-18T05:05:15;30.93;;;19.83;;
7573;SDS011;3828;48.922;9.116;2022-12-18T05:07:44;29.27;;;18.57;;
7573;SDS011;3828;48.922;9.116;2022-12-18T05:10:11;29.30;;;19.37;;
7573;SDS011;3828;48.922;9.116;2022-12-18T05:12:38;31.33;;;20.67;;
7573;SDS011;3828;48.922;9.116;2022-12-18T05:15:23;28.23;;;19.57;;
7573;SDS011;3828;48.922;9.116;2022-12-18T05:17:52;27.53;;;18.27;;
7573;SDS011;3828;48.922;9.116;2022-12-18T05:20:19;29.03;;;18.63;;
7573;SDS011;3828;48.922;9.116;2022-12-18T05:22:47;30.13;;;18.93;;
7573;SDS011;3828;48.922;9.116;2022-12-18T05:25:15;27.03;;;18.80;;
7573;SDS011;3828;48.922;9.116;2022-12-18T05:27:54;28.67;;;19.57;;
7573;SDS011;3828;48.922;9.116;2022-12-18T05:30:21;30.40;;;19.67;;
7573;SDS011;3828;48.922;9.116;2022-12-18T05:33:01;28.40;;;19.47;;
7573;SDS011;3828;48.922;9.116;2022-12-18T05:35:28;33.63;;;20.10;;
7573;SDS011;3828;48.922;9.116;2022-12-18T05:37:57;24.67;;;17.70;;
7573;SDS011;3828;48.922;9.116;2022-12-18T05:40:24;27.47;;;20.07;;
7573;SDS011;3828;48.922;9.116;2022-12-18T05:42:50;30.27;;;20.20;;
7573;SDS011;3828;48.922;9.116;2022-12-18T05:45:17;33.53;;;21.40;;
7573;SDS011;3828;48.922;9.116;2022-12-18T05:47:45;33.23;;;20.20;;
7573;SDS011;3828;48.922;9.116;2022-12-18T05:50:16;29.00;;;19.53;;
7573;SDS011;3828;48.922;9.116;2022-12-18T05:52:43;28.03;;;19.57;;
7573;SDS011;3828;48.922;9.116;2022-12-18T05:55:11;30.20;;;20.43;;
7573;SDS011;3828;48.922;9.116;2022-12-18T05:57:38;34.10;;;20.13;;
7573;SDS011;3828;48.922;9.116;2022-12-18T06:00:05;27.53;;;19.53;;
7573;SDS011;3828;48.922;9.116;2022-12-18T06:02:33;34.83;;;20.47;;
7573;SDS011;3828;48.922;9.116;2022-12-18T06:05:00;30.17;;;20.83;;
7573;SDS011;3828;48.922;9.116;2022-12-18T06:07:27;28.67;;;19.27;;
7573;SDS011;3828;48.922;9.116;2022-12-18T06:09:54;30.83;;;18.60;;
7573;SDS011;3828;48.922;9.116;2022-12-18T06:12:22;33.40;;;21.53;;
7573;SDS011;3828;48.922;9.116;2022-12-18T06:14:49;31.93;;;19.97;;
7573;SDS011;3828;48.922;9.116;2022-12-18T06:17:16;30.70;;;20.50;;
7573;SDS011;3828;48.922;9.116;2022-12-18T06:19:43;27.13;;;19.93;;
7573;SDS011;3828;48.922;9.116;2022-12-18T06:22:10;26.77;;;19.43;;
7573;SDS011;3828;48.922;9.116;2022-12-18T06:24:37;30.47;;;21.77;;
7573;SDS011;3828;48.922;9.116;2022-12-18T06:27:04;28.90;;;19.87;;
7573;SDS011;3828;48.922;9.116;2022-12-18T06:29:32;31.30;;;21.13;;
7573;SDS011;3828;48.922;9.116;2022-12-18T06:32:00;42.63;;;26.83;;
7573;SDS011;3828;48.922;9.116;2022-12-18T06:34:27;46.87;;;27.37;;
7573;SDS011;3828;48.922;9.116;2022-12-18T06:36:54;36.23;;;23.17;;
7573;SDS011;3828;48.922;9.116;2022-12-18T06:39:21;34.47;;;21.83;;
7573;SDS011;3828;48.922;9.116;2022-12-18T06:41:48;30.93;;;19.30;;
7573;SDS011;3828;48.922;9.116;2022-12-18T06:44:17;32.17;;;19.87;;
7573;SDS011;3828;48.922;9.116;2022-12-18T06:46:46;36.00;;;20.33;;
7573;SDS011;3828;48.922;9.116;2022-12-18T06:49:14;33.10;;;23.23;;
7573;SDS011;3828;48.922;9.116;2022-12-18T06:51:42;32.83;;;20.77;;
7573;SDS011;3828;48.922;9.116;2022-12-18T06:54:09;31.57;;;20.70;;
7573;SDS011;3828;48.922;9.116;2022-12-18T06:56:37;35.37;;;21.40;;
7573;SDS011;3828;48.922;9.116;2022-12-18T06:59:03;45.23;;;24.67;;
7573;SDS011;3828;48.922;9.116;2022-12-18T07:01:30;35.00;;;25.77;;
7573;SDS011;3828;48.922;9.116;2022-12-18T07:03:59;36.23;;;23.20;;
7573;SDS011;3828;48.922;9.116;2022-12-18T07:06:25;35.57;;;23.27;;
7573;SDS011;3828;48.922;9.116;2022-12-18T07:08:53;36.90;;;22.90;;
7573;SDS011;3828;48.922;9.116;2022-12-18T07:11:21;29.83;;;21.97;;
7573;SDS011;3828;48.922;9.116;2022-12-18T07:13:48;34.33;;;20.63;;
7573;SDS011;3828;48.922;9.116;2022-12-18T07:16:15;34.20;;;23.93;;
7573;SDS011;3828;48.922;9.116;2022-12-18T07:18:43;30.57;;;19.77;;
7573;SDS011;3828;48.922;9.116;2022-12-18T07:21:13;24.53;;;18.10;;
7573;SDS011;3828;48.922;9.116;2022-12-18T07:23:41;29.13;;;20.60;;
7573;SDS011;3828;48.922;9.116;2022-12-18T07:26:09;34.43;;;22.47;;
7573;SDS011;3828;48.922;9.116;2022-12-18T07:28:37;29.43;;;22.10;;
7573;SDS011;3828;48.922;9.116;2022-12-18T07:31:05;29.57;;;20.23;;
7573;SDS011;3828;48.922;9.116;2022-12-18T07:33:33;27.37;;;19.20;;
7573;SDS011;3828;48.922;9.116;2022-12-18T07:36:02;27.33;;;21.50;;
7573;SDS011;3828;48.922;9.116;2022-12-18T07:38:32;32.80;;;22.87;;
7573;SDS011;3828;48.922;9.116;2022-12-18T07:41:00;30.53;;;20.97;;
7573;SDS011;3828;48.922;9.116;2022-12-18T07:43:28;28.77;;;18.47;;
7573;SDS011;3828;48.922;9.116;2022-12-18T07:45:55;32.10;;;20.20;;
7573;SDS011;3828;48.922;9.116;2022-12-18T07:48:22;32.90;;;21.77;;
7573;SDS011;3828;48.922;9.116;2022-12-18T07:50:49;40.23;;;28.80;;
7573;SDS011;3828;48.922;9.116;2022-12-18T07:53:16;40.53;;;25.27;;
7573;SDS011;3828;48.922;9.116;2022-12-18T07:55:44;44.57;;;28.83;;
7573;SDS011;3828;48.922;9.116;2022-12-18T07:58:11;33.93;;;25.13;;
7573;SDS011;3828;48.922;9.116;2022-12-18T08:00:40;36.13;;;24.20;;
7573;SDS011;3828;48.922;9.116;2022-12-18T08:03:06;33.67;;;22.77;;
7573;SDS011;3828;48.922;9.116;2022-12-18T08:05:34;41.27;;;25.80;;
7573;SDS011;3828;48.922;9.116;2022-12-18T08:08:01;35.10;;;23.37;;
7573;SDS011;3828;48.922;9.116;2022-12-18T08:10:28;25.87;;;20.43;;
7573;SDS011;3828;48.922;9.116;2022-12-18T08:12:57;29.20;;;20.93;;
7573;SDS011;3828;48.922;9.116;2022-12-18T08:15:24;30.33;;;20.97;;
7573;SDS011;3828;48.922;9.116;2022-12-18T08:17:51;29.60;;;22.43;;
7573;SDS011;3828;48.922;9.116;2022-12-18T08:20:18;34.40;;;23.77;;
7573;SDS011;3828;48.922;9.116;2022-12-18T08:22:45;33.50;;;22.17;;
7573;SDS011;3828;48.922;9.116;2022-12-18T08:25:12;30.87;;;23.57;;
7573;SDS011;3828;48.922;9.116;2022-12-18T08:27:39;29.97;;;23.67;;
7573;SDS011;3828;48.922;9.116;2022-12-18T08:30:10;33.93;;;22.67;;
7573;SDS011;3828;48.922;9.116;2022-12-18T08:32:37;32.17;;;22.27;;
7573;SDS011;3828;48.922;9.116;2022-12-18T08:35:05;30.17;;;19.77;;
7573;SDS011;3828;48.922;9.116;2022-12-18T08:37:33;39.77;;;25.93;;
7573;SDS011;3828;48.922;9.116;2022-12-18T08:40:00;43.20;;;26.23;;
7573;SDS011;3828;48.922;9.116;2022-12-18T08:42:30;33.50;;;21.97;;
7573;SDS011;3828;48.922;9.116;2022-12-18T08:45:16;29.47;;;21.50;;
7573;SDS011;3828;48.922;9.116;2022-12-18T08:47:43;34.40;;;22.47;;
7573;SDS011;3828;48.922;9.116;2022-12-18T08:50:11;35.27;;;23.27;;
7573;SDS011;3828;48.922;9.116;2022-12-18T08:52:40;39.60;;;22.17;;
7573;SDS011;3828;48.922;9.116;2022-12-18T08:55:14;37.87;;;22.87;;
7573;SDS011;3828;48.922;9.116;2022-12-18T08:57:42;43.40;;;26.00;;
7573;SDS011;3828;48.922;9.116;2022-12-18T09:00:14;44.57;;;28.23;;
7573;SDS011;3828;48.922;9.116;2022-12-18T09:02:45;40.13;;;26.47;;
7573;SDS011;3828;48.922;9.116;2022-12-18T09:05:12;29.30;;;20.70;;
7573;SDS011;3828;48.922;9.116;2022-12-18T09:07:39;33.83;;;22.57;;
7573;SDS011;3828;48.922;9.116;2022-12-18T09:10:06;28.03;;;20.70;;
7573;SDS011;3828;48.922;9.116;2022-12-18T09:12:34;32.53;;;22.20;;
7573;SDS011;3828;48.922;9.116;2022-12-18T09:15:12;36.30;;;23.77;;
7573;SDS011;3828;48.922;9.116;2022-12-18T09:17:42;30.37;;;23.10;;
7573;SDS011;3828;48.922;9.116;2022-12-18T09:20:13;31.80;;;21.83;;
7573;SDS011;3828;48.922;9.116;2022-12-18T09:22:40;34.63;;;22.60;;
7573;SDS011;3828;48.922;9.116;2022-12-18T09:25:12;30.70;;;22.20;;
7573;SDS011;3828;48.922;9.116;2022-12-18T09:27:43;32.97;;;22.87;;
7573;SDS011;3828;48.922;9.116;2022-12-18T09:30:13;32.57;;;22.60;;
7573;SDS011;3828;48.922;9.116;2022-12-18T09:32:42;30.30;;;22.00;;
7573;SDS011;3828;48.922;9.116;2022-12-18T09:35:09;36.30;;;23.87;;
7573;SDS011;3828;48.922;9.116;2022-12-18T09:37:36;34.13;;;22.97;;
7573;SDS011;3828;48.922;9.116;2022-12-18T09:40:04;34.93;;;21.67;;
7573;SDS011;3828;48.922;9.116;2022-12-18T09:42:32;28.90;;;20.03;;
7573;SDS011;3828;48.922;9.116;2022-12-18T09:44:59;29.77;;;20.97;;
7573;SDS011;3828;48.922;9.116;2022-12-18T09:47:27;32.53;;;22.50;;
7573;SDS011;3828;48.922;9.116;2022-12-18T09:49:59;29.20;;;21.77;;
7573;SDS011;3828;48.922;9.116;2022-12-18T09:52:30;30.60;;;21.77;;
7573;SDS011;3828;48.922;9.116;2022-12-18T09:55:05;33.07;;;21.70;;
7573;SDS011;3828;48.922;9.116;2022-12-18T09:57:44;31.77;;;20.70;;
7573;SDS011;3828;48.922;9.116;2022-12-18T10:00:16;37.00;;;24.83;;
7573;SDS011;3828;48.922;9.116;2022-12-18T10:02:46;30.73;;;21.83;;
7573;SDS011;3828;48.922;9.116;2022-12-18T10:05:16;27.73;;;19.67;;
7573;SDS011;3828;48.922;9.116;2022-12-18T10:07:52;31.97;;;19.30;;
7573;SDS011;3828;48.922;9.116;2022-12-18T10:10:27;28.30;;;19.97;;
7573;SDS011;3828;48.922;9.116;2022-12-18T10:13:03;27.93;;;19.77;;
7573;SDS011;3828;48.922;9.116;2022-12-18T10:15:40;25.23;;;19.37;;
7573;SDS011;3828;48.922;9.116;2022-12-18T10:18:22;25.50;;;21.33;;
7573;SDS011;3828;48.922;9.116;2022-12-18T10:21:02;27.90;;;17.37;;
7573;SDS011;3828;48.922;9.116;2022-12-18T10:23:37;25.07;;;20.03;;
7573;SDS011;3828;48.922;9.116;2022-12-18T10:26:09;27.63;;;20.00;;
7573;SDS011;3828;48.922;9.116;2022-12-18T10:28:37;25.43;;;18.83;;
7573;SDS011;3828;48.922;9.116;2022-12-18T10:31:06;25.20;;;19.20;;
7573;SDS011;3828;48.922;9.116;2022-12-18T10:33:39;26.77;;;19.97;;
7573;SDS011;3828;48.922;9.116;2022-12-18T10:36:07;27.30;;;20.07;;
7573;SDS011;3828;48.922;9.116;2022-12-18T10:38:37;27.93;;;20.33;;
7573;SDS011;3828;48.922;9.116;2022-12-18T10:41:04;26.43;;;19.27;;
7573;SDS011;3828;48.922;9.116;2022-12-18T10:43:36;30.30;;;21.73;;
7573;SDS011;3828;48.922;9.116;2022-12-18T10:46:05;25.50;;;19.50;;
7573;SDS011;3828;48.922;9.116;2022-12-18T10:48:41;26.57;;;20.07;;
7573;SDS011;3828;48.922;9.116;2022-12-18T10:51:23;23.47;;;18.93;;
7573;SDS011;3828;48.922;9.116;2022-12-18T10:53:56;27.33;;;19.60;;
7573;SDS011;3828;48.922;9.116;2022-12-18T10:56:27;23.60;;;19.53;;
7573;SDS011;3828;48.922;9.116;2022-12-18T10:58:57;26.63;;;20.37;;
7573;SDS011;3828;48.922;9.116;2022-12-18T11:01:26;24.57;;;21.27;;
7573;SDS011;3828;48.922;9.116;2022-12-18T11:04:01;26.83;;;20.80;;
7573;SDS011;3828;48.922;9.116;2022-12-18T11:06:37;28.80;;;20.77;;
7573;SDS011;3828;48.922;9.116;2022-12-18T11:09:22;27.33;;;20.50;;
7573;SDS011;3828;48.922;9.116;2022-12-18T11:11:51;32.10;;;23.43;;
7573;SDS011;3828;48.922;9.116;2022-12-18T11:14:21;28.90;;;21.20;;
7573;SDS011;3828;48.922;9.116;2022-12-18T11:16:50;27.57;;;20.47;;
7573;SDS011;3828;48.922;9.116;2022-12-18T11:19:26;26.63;;;20.10;;
7573;SDS011;3828;48.922;9.116;2022-12-18T11:21:59;29.27;;;20.67;;
7573;SDS011;3828;48.922;9.116;2022-12-18T11:24:29;29.00;;;20.93;;
7573;SDS011;3828;48.922;9.116;2022-12-18T11:27:00;28.63;;;20.07;;
7573;SDS011;3828;48.922;9.116;2022-12-18T11:29:31;27.57;;;19.20;;
7573;SDS011;3828;48.922;9.116;2022-12-18T11:34:58;26.00;;;19.17;;
7573;SDS011;3828;48.922;9.116;2022-12-18T11:37:30;24.17;;;19.00;;
7573;SDS011;3828;48.922;9.116;2022-12-18T11:39:59;27.80;;;19.03;;
7573;SDS011;3828;48.922;9.116;2022-12-18T11:42:32;27.23;;;17.87;;
7573;SDS011;3828;48.922;9.116;2022-12-18T11:45:08;25.40;;;18.67;;
7573;SDS011;3828;48.922;9.116;2022-12-18T11:47:52;27.30;;;19.27;;
7573;SDS011;3828;48.922;9.116;2022-12-18T11:50:24;26.20;;;19.27;;
7573;SDS011;3828;48.922;9.116;2022-12-18T11:52:56;29.00;;;19.10;;
7573;SDS011;3828;48.922;9.116;2022-12-18T11:55:25;25.97;;;18.03;;
7573;SDS011;3828;48.922;9.116;2022-12-18T11:57:59;25.53;;;18.20;;
7573;SDS011;3828;48.922;9.116;2022-12-18T12:00:31;25.63;;;18.67;;
7573;SDS011;3828;48.922;9.116;2022-12-18T12:03:08;26.80;;;18.97;;
7573;SDS011;3828;48.922;9.116;2022-12-18T12:05:48;33.60;;;19.50;;
7573;SDS011;3828;48.922;9.116;2022-12-18T12:08:33;27.53;;;19.53;;
7573;SDS011;3828;48.922;9.116;2022-12-18T12:11:16;30.30;;;19.87;;
7573;SDS011;3828;48.922;9.116;2022-12-18T12:13:52;29.23;;;19.13;;
7573;SDS011;3828;48.922;9.116;2022-12-18T12:16:32;24.37;;;17.77;;
7573;SDS011;3828;48.922;9.116;2022-12-18T12:19:10;28.47;;;19.67;;
7573;SDS011;3828;48.922;9.116;2022-12-18T12:21:46;29.13;;;20.40;;
7573;SDS011;3828;48.922;9.116;2022-12-18T12:24:25;27.43;;;19.40;;
7573;SDS011;3828;48.922;9.116;2022-12-18T12:27:02;31.87;;;20.60;;
7573;SDS011;3828;48.922;9.116;2022-12-18T12:29:41;31.37;;;21.10;;
7573;SDS011;3828;48.922;9.116;2022-12-18T12:32:22;30.90;;;21.97;;
7573;SDS011;3828;48.922;9.116;2022-12-18T12:35:01;31.43;;;20.90;;
7573;SDS011;3828;48.922;9.116;2022-12-18T12:37:40;35.40;;;23.13;;
7573;SDS011;3828;48.922;9.116;2022-12-18T12:40:18;29.47;;;20.63;;
7573;SDS011;3828;48.922;9.116;2022-12-18T12:42:47;35.57;;;23.37;;
7573;SDS011;3828;48.922;9.116;2022-12-18T12:45:38;26.50;;;18.80;;
7573;SDS011;3828;48.922;9.116;2022-12-18T12:48:13;34.30;;;24.77;;
7573;SDS011;3828;48.922;9.116;2022-12-18T12:50:45;34.20;;;22.03;;
7573;SDS011;3828;48.922;9.116;2022-12-18T12:53:16;31.87;;;21.57;;
7573;SDS011;3828;48.922;9.116;2022-12-18T12:55:52;31.17;;;19.63;;
7573;SDS011;3828;48.922;9.116;2022-12-18T12:58:23;24.93;;;19.80;;
7573;SDS011;3828;48.922;9.116;2022-12-18T13:00:59;31.87;;;20.87;;
7573;SDS011;3828;48.922;9.116;2022-12-18T13:03:41;29.90;;;20.53;;
7573;SDS011;3828;48.922;9.116;2022-12-18T13:06:23;30.33;;;22.67;;
7573;SDS011;3828;48.922;9.116;2022-12-18T13:08:57;29.73;;;21.70;;
7573;SDS011;3828;48.922;9.116;2022-12-18T13:11:29;30.60;;;19.87;;
7573;SDS011;3828;48.922;9.116;2022-12-18T13:14:23;27.83;;;20.13;;
7573;SDS011;3828;48.922;9.116;2022-12-18T13:16:56;28.83;;;19.27;;
7573;SDS011;3828;48.922;9.116;2022-12-18T13:19:41;30.07;;;19.37;;
7573;SDS011;3828;48.922;9.116;2022-12-18T13:22:19;30.77;;;21.13;;
7573;SDS011;3828;48.922;9.116;2022-12-18T13:24:48;24.50;;;18.93;;
7573;SDS011;3828;48.922;9.116;2022-12-18T13:36:29;30.23;;;20.03;;
7573;SDS011;3828;48.922;9.116;2022-12-18T13:39:15;29.27;;;20.07;;
7573;SDS011;3828;48.922;9.116;2022-12-18T13:41:51;27.93;;;20.17;;
7573;SDS011;3828;48.922;9.116;2022-12-18T13:44:30;33.70;;;20.47;;
7573;SDS011;3828;48.922;9.116;2022-12-18T13:46:58;32.77;;;20.67;;
7573;SDS011;3828;48.922;9.116;2022-12-18T13:49:28;29.60;;;20.43;;
7573;SDS011;3828;48.922;9.116;2022-12-18T13:52:03;42.97;;;24.63;;
7573;SDS011;3828;48.922;9.116;2022-12-18T13:54:47;41.70;;;25.87;;
7573;SDS011;3828;48.922;9.116;2022-12-18T13:57:25;54.50;;;33.23;;
7573;SDS011;3828;48.922;9.116;2022-12-18T13:59:57;43.53;;;30.50;;
7573;SDS011;3828;48.922;9.116;2022-12-18T14:02:26;78.53;;;42.97;;
7573;SDS011;3828;48.922;9.116;2022-12-18T14:04:54;55.63;;;30.07;;
7573;SDS011;3828;48.922;9.116;2022-12-18T14:07:22;76.13;;;40.97;;
7573;SDS011;3828;48.922;9.116;2022-12-18T14:09:50;51.20;;;31.60;;
7573;SDS011;3828;48.922;9.116;2022-12-18T14:12:21;59.80;;;37.17;;
7573;SDS011;3828;48.922;9.116;2022-12-18T14:15:14;52.50;;;33.47;;
7573;SDS011;3828;48.922;9.116;2022-12-18T14:17:49;39.37;;;25.67;;
7573;SDS011;3828;48.922;9.116;2022-12-18T14:20:16;44.30;;;29.87;;
7573;SDS011;3828;48.922;9.116;2022-12-18T14:22:44;40.13;;;28.33;;
7573;SDS011;3828;48.922;9.116;2022-12-18T14:25:14;47.83;;;31.30;;
7573;SDS011;3828;48.922;9.116;2022-12-18T14:27:43;45.47;;;31.20;;
7573;SDS011;3828;48.922;9.116;2022-12-18T14:30:26;45.00;;;31.23;;
7573;SDS011;3828;48.922;9.116;2022-12-18T14:33:02;50.37;;;32.37;;
7573;SDS011;3828;48.922;9.116;2022-12-18T14:35:30;49.07;;;32.67;;
7573;SDS011;3828;48.922;9.116;2022-12-18T14:38:09;50.57;;;33.17;;
7573;SDS011;3828;48.922;9.116;2022-12-18T14:40:37;41.33;;;31.60;;
7573;SDS011;3828;48.922;9.116;2022-12-18T14:43:04;34.97;;;29.60;;
7573;SDS011;3828;48.922;9.116;2022-12-18T14:45:36;48.97;;;34.67;;
7573;SDS011;3828;48.922;9.116;2022-12-18T14:48:06;45.57;;;31.90;;
7573;SDS011;3828;48.922;9.116;2022-12-18T14:50:33;42.80;;;34.40;;
7573;SDS011;3828;48.922;9.116;2022-12-18T14:53:00;39.13;;;26.73;;
7573;SDS011;3828;48.922;9.116;2022-12-18T14:55:27;40.97;;;27.90;;
7573;SDS011;3828;48.922;9.116;2022-12-18T14:57:54;32.87;;;23.90;;
7573;SDS011;3828;48.922;9.116;2022-12-18T15:00:23;37.23;;;24.43;;
7573;SDS011;3828;48.922;9.116;2022-12-18T15:02:53;40.70;;;27.83;;
7573;SDS011;3828;48.922;9.116;2022-12-18T15:05:24;36.50;;;23.67;;
7573;SDS011;3828;48.922;9.116;2022-12-18T15:07:53;34.20;;;23.83;;
7573;SDS011;3828;48.922;9.116;2022-12-18T15:10:21;32.43;;;22.17;;
7573;SDS011;3828;48.922;9.116;2022-12-18T15:13:05;30.17;;;23.00;;
7573;SDS011;3828;48.922;9.116;2022-12-18T15:15:49;31.30;;;21.93;;
7573;SDS011;3828;48.922;9.116;2022-12-18T15:18:18;29.37;;;22.00;;
7573;SDS011;3828;48.922;9.116;2022-12-18T15:20:47;33.30;;;23.10;;
7573;SDS011;3828;48.922;9.116;2022-12-18T15:23:16;31.07;;;21.97;;